| time (UTC) | temp F | wind direction | speed knots | gust knots | rain 1hr in | rain 24hr in | rain mn in | humidity % | barometer mb |
| 20260507040216 | 47 | 196 | 2.6 | 0.0 | 0.00 | 0.00 | 0.00 | 89 | 1010.7 |
| 20260507033211 | 46 | 232 | 4.3 | 0.0 | 0.00 | 0.00 | 0.00 | 89 | 1010.6 |
| 20260507030211 | 46 | 195 | 1.7 | 0.0 | 0.00 | 0.00 | 0.00 | 89 | 1010.4 |
| 20260507023211 | 46 | 258 | 6.1 | 0.0 | 0.00 | 0.00 | 0.00 | 89 | 1010.2 |
| 20260507020211 | 47 | 207 | 6.1 | 0.0 | 0.00 | 0.00 | 0.00 | 91 | 1010.2 |
| 20260507013212 | 46 | 208 | 4.3 | 0.0 | 0.00 | 0.00 | 0.00 | 92 | 1010.3 |
| 20260507010211 | 45 | 208 | 2.6 | 0.0 | 0.00 | 0.00 | 0.00 | 92 | 1010.2 |
| 20260507003209 | 45 | 187 | 1.7 | 0.0 | 0.00 | 0.00 | 0.00 | 92 | 1010.0 |
| 20260507000209 | 46 | 188 | 2.6 | 0.0 | 0.00 | 0.00 | 0.00 | 92 | 1009.9 |
| 20260506233209 | 46 | 184 | 0.9 | 0.0 | 0.00 | 0.00 | 0.00 | 92 | 1009.9 |
| 20260506230209 | 46 | 223 | 3.5 | 0.0 | 0.00 | 0.00 | 0.00 | 92 | 1009.8 |
| 20260506223209 | 46 | 167 | 3.5 | 0.0 | 0.00 | 0.00 | 0.00 | 91 | 1009.5 |
| 20260506220209 | 47 | 224 | 3.5 | 0.0 | 0.00 | 0.00 | 0.09 | 91 | 1009.2 |
| 20260506213209 | 47 | 180 | 6.1 | 0.0 | 0.00 | 0.00 | 0.09 | 91 | 1009.1 |
| 20260506210210 | 47 | 202 | 5.2 | 0.0 | 0.00 | 0.00 | 0.09 | 90 | 1008.9 |
| 20260506203210 | 48 | 195 | 5.2 | 0.0 | 0.00 | 0.00 | 0.09 | 89 | 1008.9 |
| 20260506200210 | 48 | 227 | 1.7 | 0.0 | 0.00 | 0.00 | 0.09 | 89 | 1008.8 |
| 20260506193215 | 49 | 198 | 2.6 | 0.0 | 0.00 | 0.00 | 0.09 | 90 | 1008.6 |
| 20260506190211 | 49 | 250 | 2.6 | 0.0 | 0.00 | 0.00 | 0.09 | 89 | 1008.2 |
| 20260506183209 | 50 | 157 | 4.3 | 0.0 | 0.00 | 0.00 | 0.09 | 88 | 1007.7 |
| 20260506180216 | 50 | 221 | 2.6 | 0.0 | 0.00 | 0.00 | 0.09 | 87 | 1007.6 |
| 20260506173210 | 50 | 167 | 3.5 | 0.0 | 0.00 | 0.00 | 0.09 | 87 | 1007.4 |
| 20260506170215 | 50 | 213 | 6.1 | 0.0 | 0.00 | 0.00 | 0.09 | 88 | 1006.7 |
| 20260506163210 | 50 | 218 | 6.1 | 0.0 | 0.00 | 0.00 | 0.09 | 87 | 1006.6 |
| 20260506160210 | 50 | 166 | 9.6 | 0.0 | 0.00 | 0.00 | 0.09 | 89 | 1006.7 |
| 20260506153210 | 49 | 221 | 5.2 | 0.0 | 0.00 | 0.00 | 0.09 | 89 | 1006.1 |
| 20260506150210 | 51 | 209 | 7.0 | 0.0 | 0.00 | 0.00 | 0.04 | 86 | 1006.3 |
| 20260506143210 | 56 | 228 | 14.8 | 0.0 | 0.00 | 0.00 | 0.01 | 75 | 1005.0 |
| 20260506140210 | 62 | 255 | 6.1 | 0.0 | 0.00 | 0.00 | 0.01 | 65 | 1003.9 |
| 20260506133211 | 64 | 227 | 4.3 | 0.0 | 0.00 | 0.00 | 0.01 | 63 | 1004.0 |
| 20260506130211 | 60 | 163 | 2.6 | 0.0 | 0.00 | 0.00 | 0.01 | 68 | 1004.2 |
| 20260506123210 | 61 | 269 | 3.5 | 0.0 | 0.00 | 0.00 | 0.01 | 68 | 1004.0 |
| 20260506120210 | 61 | 323 | 0.9 | 0.0 | 0.00 | 0.00 | 0.01 | 65 | 1003.7 |
| 20260506113217 | 61 | 339 | 3.5 | 0.0 | 0.00 | 0.00 | 0.01 | 67 | 1003.9 |
| 20260506110210 | 61 | 360 | 1.7 | 0.0 | 0.00 | 0.00 | 0.01 | 64 | 1004.2 |
| 20260506100213 | 58 | 53 | 2.6 | 0.0 | 0.00 | 0.00 | 0.01 | 76 | 1004.5 |
| 20260506093211 | 57 | 260 | 0.9 | 0.0 | 0.00 | 0.00 | 0.00 | 76 | 1004.7 |
| 20260506090211 | 58 | 177 | 1.7 | 0.0 | 0.00 | 0.00 | 0.00 | 73 | 1004.9 |
| 20260506083211 | 59 | 360 | 1.7 | 0.0 | 0.00 | 0.00 | 0.00 | 75 | 1004.7 |
| 20260506080212 | 56 | 95 | 1.7 | 0.0 | 0.00 | 0.00 | 0.00 | 80 | 1004.8 |
| 20260506073211 | 55 | 325 | 1.7 | 0.0 | 0.00 | 0.00 | 0.00 | 83 | 1004.9 |
| 20260506070212 | 53 | 78 | 0.9 | 0.0 | 0.00 | 0.00 | 0.00 | 87 | 1005.2 |
| 20260506060210 | 50 | 236 | 1.7 | 0.0 | 0.00 | 0.00 | 0.00 | 92 | 1005.1 |
| 20260506050211 | 48 | 236 | 0.0 | 0.0 | 0.00 | 0.00 | 0.00 | 92 | 1005.2 |
| 20260506043211 | 48 | 236 | 0.0 | 0.0 | 0.00 | 0.00 | 0.00 | 91 | 1005.5 |